sensor_id;sensor_type;location;lat;lon;timestamp;P1;durP1;ratioP1;P2;durP2;ratioP2
76807;SDS011;65758;45.458;11.062;2023-09-12T00:01:12;8.60;;;7.70;;
76807;SDS011;65758;45.458;11.062;2023-09-12T00:03:39;9.20;;;8.00;;
76807;SDS011;65758;45.458;11.062;2023-09-12T00:06:06;9.80;;;7.80;;
76807;SDS011;65758;45.458;11.062;2023-09-12T00:08:33;7.80;;;7.00;;
76807;SDS011;65758;45.458;11.062;2023-09-12T00:11:04;8.60;;;7.80;;
76807;SDS011;65758;45.458;11.062;2023-09-12T00:13:39;9.20;;;8.20;;
76807;SDS011;65758;45.458;11.062;2023-09-12T00:16:08;7.90;;;7.10;;
76807;SDS011;65758;45.458;11.062;2023-09-12T00:18:38;9.30;;;7.50;;
76807;SDS011;65758;45.458;11.062;2023-09-12T00:21:06;8.90;;;8.00;;
76807;SDS011;65758;45.458;11.062;2023-09-12T00:23:32;7.60;;;6.90;;
76807;SDS011;65758;45.458;11.062;2023-09-12T00:25:59;10.20;;;7.50;;
76807;SDS011;65758;45.458;11.062;2023-09-12T00:28:26;9.90;;;8.40;;
76807;SDS011;65758;45.458;11.062;2023-09-12T00:30:54;9.20;;;7.50;;
76807;SDS011;65758;45.458;11.062;2023-09-12T00:33:21;9.20;;;7.20;;
76807;SDS011;65758;45.458;11.062;2023-09-12T00:35:50;7.80;;;6.90;;
76807;SDS011;65758;45.458;11.062;2023-09-12T00:38:17;8.30;;;7.50;;
76807;SDS011;65758;45.458;11.062;2023-09-12T00:40:43;8.60;;;7.60;;
76807;SDS011;65758;45.458;11.062;2023-09-12T00:43:10;9.30;;;7.70;;
76807;SDS011;65758;45.458;11.062;2023-09-12T00:45:37;8.20;;;7.30;;
76807;SDS011;65758;45.458;11.062;2023-09-12T00:48:04;11.10;;;8.00;;
76807;SDS011;65758;45.458;11.062;2023-09-12T00:50:33;8.50;;;7.70;;
76807;SDS011;65758;45.458;11.062;2023-09-12T00:53:01;9.60;;;8.00;;
76807;SDS011;65758;45.458;11.062;2023-09-12T00:55:31;10.30;;;7.50;;
76807;SDS011;65758;45.458;11.062;2023-09-12T00:57:59;8.60;;;6.80;;
76807;SDS011;65758;45.458;11.062;2023-09-12T01:00:27;10.10;;;7.20;;
76807;SDS011;65758;45.458;11.062;2023-09-12T01:02:56;10.40;;;7.80;;
76807;SDS011;65758;45.458;11.062;2023-09-12T01:05:25;8.30;;;7.50;;
76807;SDS011;65758;45.458;11.062;2023-09-12T01:07:54;8.40;;;7.40;;
76807;SDS011;65758;45.458;11.062;2023-09-12T01:10:21;8.30;;;7.40;;
76807;SDS011;65758;45.458;11.062;2023-09-12T01:12:48;10.10;;;8.30;;
76807;SDS011;65758;45.458;11.062;2023-09-12T01:15:15;10.10;;;7.40;;
76807;SDS011;65758;45.458;11.062;2023-09-12T01:17:43;9.10;;;8.00;;
76807;SDS011;65758;45.458;11.062;2023-09-12T01:20:13;9.40;;;7.30;;
76807;SDS011;65758;45.458;11.062;2023-09-12T01:26:35;9.50;;;7.50;;
76807;SDS011;65758;45.458;11.062;2023-09-12T01:28:44;12.00;;;8.00;;
76807;SDS011;65758;45.458;11.062;2023-09-12T01:31:12;8.50;;;7.20;;
76807;SDS011;65758;45.458;11.062;2023-09-12T01:33:41;10.00;;;7.70;;
76807;SDS011;65758;45.458;11.062;2023-09-12T01:36:09;14.40;;;7.80;;
76807;SDS011;65758;45.458;11.062;2023-09-12T01:38:37;9.50;;;7.90;;
76807;SDS011;65758;45.458;11.062;2023-09-12T01:41:04;9.00;;;8.10;;
76807;SDS011;65758;45.458;11.062;2023-09-12T01:43:33;9.50;;;7.90;;
76807;SDS011;65758;45.458;11.062;2023-09-12T01:46:03;7.80;;;7.10;;
76807;SDS011;65758;45.458;11.062;2023-09-12T01:48:31;11.00;;;7.50;;
76807;SDS011;65758;45.458;11.062;2023-09-12T01:51:02;9.60;;;6.30;;
76807;SDS011;65758;45.458;11.062;2023-09-12T01:53:32;8.80;;;7.90;;
76807;SDS011;65758;45.458;11.062;2023-09-12T01:56:00;12.20;;;7.40;;
76807;SDS011;65758;45.458;11.062;2023-09-12T01:58:27;10.20;;;7.70;;
76807;SDS011;65758;45.458;11.062;2023-09-12T02:00:55;8.20;;;6.90;;
76807;SDS011;65758;45.458;11.062;2023-09-12T02:03:22;11.70;;;8.10;;
76807;SDS011;65758;45.458;11.062;2023-09-12T02:05:49;10.50;;;7.60;;
76807;SDS011;65758;45.458;11.062;2023-09-12T02:08:16;8.60;;;7.00;;
76807;SDS011;65758;45.458;11.062;2023-09-12T02:10:42;10.10;;;7.70;;
76807;SDS011;65758;45.458;11.062;2023-09-12T02:13:09;11.00;;;8.40;;
76807;SDS011;65758;45.458;11.062;2023-09-12T02:15:36;9.10;;;8.00;;
76807;SDS011;65758;45.458;11.062;2023-09-12T02:18:03;9.30;;;7.30;;
76807;SDS011;65758;45.458;11.062;2023-09-12T02:20:31;11.50;;;8.10;;
76807;SDS011;65758;45.458;11.062;2023-09-12T02:22:58;11.30;;;7.90;;
76807;SDS011;65758;45.458;11.062;2023-09-12T02:25:25;7.80;;;6.50;;
76807;SDS011;65758;45.458;11.062;2023-09-12T02:27:52;8.60;;;7.70;;
76807;SDS011;65758;45.458;11.062;2023-09-12T02:30:19;9.00;;;8.00;;
76807;SDS011;65758;45.458;11.062;2023-09-12T02:32:46;9.50;;;8.70;;
76807;SDS011;65758;45.458;11.062;2023-09-12T02:35:13;9.20;;;8.20;;
76807;SDS011;65758;45.458;11.062;2023-09-12T02:37:39;11.50;;;8.00;;
76807;SDS011;65758;45.458;11.062;2023-09-12T02:40:07;7.90;;;7.10;;
76807;SDS011;65758;45.458;11.062;2023-09-12T02:42:37;11.70;;;8.30;;
76807;SDS011;65758;45.458;11.062;2023-09-12T02:45:05;10.10;;;7.90;;
76807;SDS011;65758;45.458;11.062;2023-09-12T02:47:32;12.20;;;8.60;;
76807;SDS011;65758;45.458;11.062;2023-09-12T02:49:59;8.90;;;8.00;;
76807;SDS011;65758;45.458;11.062;2023-09-12T02:52:26;8.90;;;7.90;;
76807;SDS011;65758;45.458;11.062;2023-09-12T02:54:52;9.70;;;8.00;;
76807;SDS011;65758;45.458;11.062;2023-09-12T02:57:20;12.10;;;8.60;;
76807;SDS011;65758;45.458;11.062;2023-09-12T02:59:47;8.20;;;7.30;;
76807;SDS011;65758;45.458;11.062;2023-09-12T03:02:13;10.30;;;7.70;;
76807;SDS011;65758;45.458;11.062;2023-09-12T03:04:40;10.70;;;9.30;;
76807;SDS011;65758;45.458;11.062;2023-09-12T03:07:07;11.80;;;8.70;;
76807;SDS011;65758;45.458;11.062;2023-09-12T03:09:34;9.10;;;8.00;;
76807;SDS011;65758;45.458;11.062;2023-09-12T03:12:01;10.50;;;8.50;;
76807;SDS011;65758;45.458;11.062;2023-09-12T03:14:30;11.20;;;8.60;;
76807;SDS011;65758;45.458;11.062;2023-09-12T03:16:57;9.80;;;8.10;;
76807;SDS011;65758;45.458;11.062;2023-09-12T03:19:24;9.90;;;8.20;;
76807;SDS011;65758;45.458;11.062;2023-09-12T03:21:51;10.30;;;8.70;;
76807;SDS011;65758;45.458;11.062;2023-09-12T03:24:18;10.10;;;8.20;;
76807;SDS011;65758;45.458;11.062;2023-09-12T03:26:45;9.00;;;7.80;;
76807;SDS011;65758;45.458;11.062;2023-09-12T03:29:13;9.70;;;8.70;;
76807;SDS011;65758;45.458;11.062;2023-09-12T03:31:40;11.10;;;8.50;;
76807;SDS011;65758;45.458;11.062;2023-09-12T03:34:07;13.10;;;8.60;;
76807;SDS011;65758;45.458;11.062;2023-09-12T03:36:33;9.90;;;8.60;;
76807;SDS011;65758;45.458;11.062;2023-09-12T03:39:00;11.90;;;8.80;;
76807;SDS011;65758;45.458;11.062;2023-09-12T03:41:27;10.00;;;9.00;;
76807;SDS011;65758;45.458;11.062;2023-09-12T03:43:54;10.00;;;8.60;;
76807;SDS011;65758;45.458;11.062;2023-09-12T03:46:22;10.20;;;8.30;;
76807;SDS011;65758;45.458;11.062;2023-09-12T03:48:49;10.10;;;8.30;;
76807;SDS011;65758;45.458;11.062;2023-09-12T03:51:17;12.80;;;8.60;;
76807;SDS011;65758;45.458;11.062;2023-09-12T03:53:44;10.30;;;8.70;;
76807;SDS011;65758;45.458;11.062;2023-09-12T03:56:10;11.30;;;8.10;;
76807;SDS011;65758;45.458;11.062;2023-09-12T03:58:39;10.70;;;8.50;;
76807;SDS011;65758;45.458;11.062;2023-09-12T04:01:07;9.90;;;8.60;;
76807;SDS011;65758;45.458;11.062;2023-09-12T04:03:34;9.00;;;8.00;;
76807;SDS011;65758;45.458;11.062;2023-09-12T04:06:01;11.40;;;8.40;;
76807;SDS011;65758;45.458;11.062;2023-09-12T04:08:28;11.30;;;8.60;;
76807;SDS011;65758;45.458;11.062;2023-09-12T04:10:55;11.50;;;8.70;;
76807;SDS011;65758;45.458;11.062;2023-09-12T04:13:22;14.60;;;8.60;;
76807;SDS011;65758;45.458;11.062;2023-09-12T04:15:49;14.70;;;8.30;;
76807;SDS011;65758;45.458;11.062;2023-09-12T04:18:16;11.70;;;7.70;;
76807;SDS011;65758;45.458;11.062;2023-09-12T04:20:43;11.60;;;8.50;;
76807;SDS011;65758;45.458;11.062;2023-09-12T04:23:10;11.40;;;8.20;;
76807;SDS011;65758;45.458;11.062;2023-09-12T04:25:36;10.40;;;8.40;;
76807;SDS011;65758;45.458;11.062;2023-09-12T04:28:04;10.90;;;8.40;;
76807;SDS011;65758;45.458;11.062;2023-09-12T04:30:31;9.70;;;7.60;;
76807;SDS011;65758;45.458;11.062;2023-09-12T04:32:58;10.40;;;8.20;;
76807;SDS011;65758;45.458;11.062;2023-09-12T04:35:24;11.30;;;8.30;;
76807;SDS011;65758;45.458;11.062;2023-09-12T04:37:51;9.60;;;8.10;;
76807;SDS011;65758;45.458;11.062;2023-09-12T04:40:18;9.70;;;8.30;;
76807;SDS011;65758;45.458;11.062;2023-09-12T04:42:45;11.00;;;8.70;;
76807;SDS011;65758;45.458;11.062;2023-09-12T04:45:12;11.50;;;8.90;;
76807;SDS011;65758;45.458;11.062;2023-09-12T04:47:40;8.90;;;8.00;;
76807;SDS011;65758;45.458;11.062;2023-09-12T04:50:07;10.30;;;8.60;;
76807;SDS011;65758;45.458;11.062;2023-09-12T04:52:34;12.20;;;8.90;;
76807;SDS011;65758;45.458;11.062;2023-09-12T04:55:01;10.20;;;7.90;;
76807;SDS011;65758;45.458;11.062;2023-09-12T04:57:30;14.00;;;8.50;;
76807;SDS011;65758;45.458;11.062;2023-09-12T04:59:58;10.70;;;8.20;;
76807;SDS011;65758;45.458;11.062;2023-09-12T05:02:25;10.10;;;8.10;;
76807;SDS011;65758;45.458;11.062;2023-09-12T05:04:52;12.70;;;8.50;;
76807;SDS011;65758;45.458;11.062;2023-09-12T05:07:21;10.00;;;8.30;;
76807;SDS011;65758;45.458;11.062;2023-09-12T05:09:49;12.00;;;8.40;;
76807;SDS011;65758;45.458;11.062;2023-09-12T05:12:16;10.90;;;9.00;;
76807;SDS011;65758;45.458;11.062;2023-09-12T05:14:44;13.00;;;8.50;;
76807;SDS011;65758;45.458;11.062;2023-09-12T05:17:11;9.90;;;9.00;;
76807;SDS011;65758;45.458;11.062;2023-09-12T05:19:38;10.60;;;9.50;;
76807;SDS011;65758;45.458;11.062;2023-09-12T05:22:05;10.10;;;8.80;;
76807;SDS011;65758;45.458;11.062;2023-09-12T05:24:31;12.80;;;8.50;;
76807;SDS011;65758;45.458;11.062;2023-09-12T05:26:58;9.60;;;8.50;;
76807;SDS011;65758;45.458;11.062;2023-09-12T05:29:25;12.00;;;8.80;;
76807;SDS011;65758;45.458;11.062;2023-09-12T05:31:52;10.30;;;9.20;;
76807;SDS011;65758;45.458;11.062;2023-09-12T05:34:19;10.60;;;9.50;;
76807;SDS011;65758;45.458;11.062;2023-09-12T05:36:46;12.20;;;9.00;;
76807;SDS011;65758;45.458;11.062;2023-09-12T05:39:12;10.30;;;9.10;;
76807;SDS011;65758;45.458;11.062;2023-09-12T05:41:40;13.30;;;9.40;;
76807;SDS011;65758;45.458;11.062;2023-09-12T05:44:07;9.30;;;8.10;;
76807;SDS011;65758;45.458;11.062;2023-09-12T05:46:35;12.40;;;9.20;;
76807;SDS011;65758;45.458;11.062;2023-09-12T05:49:02;11.70;;;9.30;;
76807;SDS011;65758;45.458;11.062;2023-09-12T05:51:30;12.60;;;9.50;;
76807;SDS011;65758;45.458;11.062;2023-09-12T05:53:58;15.40;;;10.60;;
76807;SDS011;65758;45.458;11.062;2023-09-12T05:56:25;13.00;;;9.50;;
76807;SDS011;65758;45.458;11.062;2023-09-12T05:58:52;11.10;;;9.50;;
76807;SDS011;65758;45.458;11.062;2023-09-12T06:01:19;15.90;;;10.50;;
76807;SDS011;65758;45.458;11.062;2023-09-12T06:03:46;11.20;;;10.00;;
76807;SDS011;65758;45.458;11.062;2023-09-12T06:06:14;13.00;;;9.60;;
76807;SDS011;65758;45.458;11.062;2023-09-12T06:08:41;13.10;;;10.40;;
76807;SDS011;65758;45.458;11.062;2023-09-12T06:11:08;12.50;;;10.20;;
76807;SDS011;65758;45.458;11.062;2023-09-12T06:13:35;12.70;;;10.10;;
76807;SDS011;65758;45.458;11.062;2023-09-12T06:16:04;11.00;;;8.70;;
76807;SDS011;65758;45.458;11.062;2023-09-12T06:18:32;11.70;;;8.30;;
76807;SDS011;65758;45.458;11.062;2023-09-12T06:21:01;17.60;;;9.40;;
76807;SDS011;65758;45.458;11.062;2023-09-12T06:23:30;11.90;;;8.80;;
76807;SDS011;65758;45.458;11.062;2023-09-12T06:25:57;9.30;;;8.10;;
76807;SDS011;65758;45.458;11.062;2023-09-12T06:28:25;13.50;;;9.10;;
76807;SDS011;65758;45.458;11.062;2023-09-12T06:30:53;11.40;;;8.90;;
76807;SDS011;65758;45.458;11.062;2023-09-12T06:33:21;13.20;;;8.50;;
76807;SDS011;65758;45.458;11.062;2023-09-12T06:35:48;11.70;;;8.70;;
76807;SDS011;65758;45.458;11.062;2023-09-12T06:38:16;9.40;;;8.30;;
76807;SDS011;65758;45.458;11.062;2023-09-12T06:40:43;15.10;;;8.10;;
76807;SDS011;65758;45.458;11.062;2023-09-12T06:43:10;15.30;;;9.10;;
76807;SDS011;65758;45.458;11.062;2023-09-12T06:45:37;16.30;;;8.70;;
76807;SDS011;65758;45.458;11.062;2023-09-12T06:48:05;13.30;;;9.10;;
76807;SDS011;65758;45.458;11.062;2023-09-12T06:50:32;17.10;;;9.90;;
76807;SDS011;65758;45.458;11.062;2023-09-12T06:53:00;19.30;;;10.30;;
76807;SDS011;65758;45.458;11.062;2023-09-12T06:55:27;16.50;;;9.20;;
76807;SDS011;65758;45.458;11.062;2023-09-12T06:57:54;13.80;;;10.30;;
76807;SDS011;65758;45.458;11.062;2023-09-12T07:00:21;18.20;;;10.60;;
76807;SDS011;65758;45.458;11.062;2023-09-12T07:02:48;17.00;;;9.90;;
76807;SDS011;65758;45.458;11.062;2023-09-12T07:05:15;17.10;;;10.50;;
76807;SDS011;65758;45.458;11.062;2023-09-12T07:07:42;15.00;;;11.00;;
76807;SDS011;65758;45.458;11.062;2023-09-12T07:10:09;13.70;;;10.10;;
76807;SDS011;65758;45.458;11.062;2023-09-12T07:12:50;15.80;;;11.10;;
76807;SDS011;65758;45.458;11.062;2023-09-12T07:15:18;16.80;;;10.80;;
76807;SDS011;65758;45.458;11.062;2023-09-12T07:17:45;16.90;;;11.60;;
76807;SDS011;65758;45.458;11.062;2023-09-12T07:20:13;20.20;;;12.00;;
76807;SDS011;65758;45.458;11.062;2023-09-12T07:22:42;14.90;;;12.10;;
76807;SDS011;65758;45.458;11.062;2023-09-12T07:25:08;14.60;;;11.30;;
76807;SDS011;65758;45.458;11.062;2023-09-12T07:27:38;15.70;;;11.10;;
76807;SDS011;65758;45.458;11.062;2023-09-12T07:30:06;17.10;;;11.40;;
76807;SDS011;65758;45.458;11.062;2023-09-12T07:32:34;13.60;;;12.00;;
76807;SDS011;65758;45.458;11.062;2023-09-12T07:35:01;15.70;;;11.30;;
76807;SDS011;65758;45.458;11.062;2023-09-12T07:37:28;17.50;;;12.10;;
76807;SDS011;65758;45.458;11.062;2023-09-12T07:39:55;22.90;;;12.60;;
76807;SDS011;65758;45.458;11.062;2023-09-12T07:42:22;17.10;;;11.80;;
76807;SDS011;65758;45.458;11.062;2023-09-12T07:44:50;16.50;;;11.80;;
76807;SDS011;65758;45.458;11.062;2023-09-12T07:47:18;18.90;;;12.20;;
76807;SDS011;65758;45.458;11.062;2023-09-12T07:49:45;15.20;;;10.40;;
76807;SDS011;65758;45.458;11.062;2023-09-12T07:52:19;18.50;;;12.00;;
76807;SDS011;65758;45.458;11.062;2023-09-12T07:54:45;17.10;;;11.80;;
76807;SDS011;65758;45.458;11.062;2023-09-12T07:57:12;19.30;;;11.80;;
76807;SDS011;65758;45.458;11.062;2023-09-12T07:59:39;12.70;;;9.20;;
76807;SDS011;65758;45.458;11.062;2023-09-12T08:02:06;14.70;;;9.00;;
76807;SDS011;65758;45.458;11.062;2023-09-12T08:04:33;13.40;;;8.70;;
76807;SDS011;65758;45.458;11.062;2023-09-12T08:07:00;12.10;;;8.80;;
76807;SDS011;65758;45.458;11.062;2023-09-12T08:09:36;11.30;;;8.40;;
76807;SDS011;65758;45.458;11.062;2023-09-12T08:12:17;11.30;;;8.00;;
76807;SDS011;65758;45.458;11.062;2023-09-12T08:14:46;10.50;;;8.10;;
76807;SDS011;65758;45.458;11.062;2023-09-12T08:17:13;10.40;;;9.10;;
76807;SDS011;65758;45.458;11.062;2023-09-12T08:19:41;15.10;;;9.30;;
76807;SDS011;65758;45.458;11.062;2023-09-12T08:22:08;13.80;;;9.30;;
76807;SDS011;65758;45.458;11.062;2023-09-12T08:24:36;11.80;;;9.50;;
76807;SDS011;65758;45.458;11.062;2023-09-12T08:27:04;11.80;;;9.40;;
76807;SDS011;65758;45.458;11.062;2023-09-12T08:29:32;12.90;;;9.90;;
76807;SDS011;65758;45.458;11.062;2023-09-12T08:32:00;14.40;;;9.20;;
76807;SDS011;65758;45.458;11.062;2023-09-12T08:34:27;10.90;;;8.60;;
76807;SDS011;65758;45.458;11.062;2023-09-12T08:36:54;12.30;;;9.50;;
76807;SDS011;65758;45.458;11.062;2023-09-12T08:39:25;11.30;;;9.20;;
76807;SDS011;65758;45.458;11.062;2023-09-12T08:41:53;17.90;;;10.20;;
76807;SDS011;65758;45.458;11.062;2023-09-12T08:44:20;16.50;;;10.70;;
76807;SDS011;65758;45.458;11.062;2023-09-12T08:46:48;15.70;;;11.00;;
76807;SDS011;65758;45.458;11.062;2023-09-12T08:49:15;16.70;;;10.70;;
76807;SDS011;65758;45.458;11.062;2023-09-12T08:51:43;14.50;;;10.40;;
76807;SDS011;65758;45.458;11.062;2023-09-12T08:54:11;15.50;;;8.60;;
76807;SDS011;65758;45.458;11.062;2023-09-12T08:56:41;12.20;;;9.50;;
76807;SDS011;65758;45.458;11.062;2023-09-12T08:59:10;12.70;;;9.20;;
76807;SDS011;65758;45.458;11.062;2023-09-12T09:01:38;12.50;;;9.40;;
76807;SDS011;65758;45.458;11.062;2023-09-12T09:04:06;11.40;;;8.30;;
76807;SDS011;65758;45.458;11.062;2023-09-12T09:06:33;14.70;;;9.60;;
76807;SDS011;65758;45.458;11.062;2023-09-12T09:09:07;12.30;;;9.40;;
76807;SDS011;65758;45.458;11.062;2023-09-12T09:11:35;13.50;;;8.60;;
76807;SDS011;65758;45.458;11.062;2023-09-12T09:14:02;13.50;;;9.60;;
76807;SDS011;65758;45.458;11.062;2023-09-12T09:16:29;15.10;;;9.60;;
76807;SDS011;65758;45.458;11.062;2023-09-12T09:19:01;11.50;;;9.30;;
76807;SDS011;65758;45.458;11.062;2023-09-12T09:21:31;12.50;;;8.80;;
76807;SDS011;65758;45.458;11.062;2023-09-12T09:24:04;12.00;;;8.60;;
76807;SDS011;65758;45.458;11.062;2023-09-12T09:26:49;12.90;;;9.70;;
76807;SDS011;65758;45.458;11.062;2023-09-12T09:29:20;15.30;;;9.40;;
76807;SDS011;65758;45.458;11.062;2023-09-12T09:31:48;12.00;;;8.90;;
76807;SDS011;65758;45.458;11.062;2023-09-12T09:34:18;13.40;;;9.50;;
76807;SDS011;65758;45.458;11.062;2023-09-12T09:36:49;11.70;;;9.00;;
76807;SDS011;65758;45.458;11.062;2023-09-12T09:39:19;12.40;;;9.10;;
76807;SDS011;65758;45.458;11.062;2023-09-12T09:41:47;12.30;;;9.60;;
76807;SDS011;65758;45.458;11.062;2023-09-12T09:44:15;11.90;;;8.50;;
76807;SDS011;65758;45.458;11.062;2023-09-12T09:46:43;12.00;;;8.70;;
76807;SDS011;65758;45.458;11.062;2023-09-12T09:49:11;10.80;;;8.80;;
76807;SDS011;65758;45.458;11.062;2023-09-12T09:51:41;15.30;;;9.50;;
76807;SDS011;65758;45.458;11.062;2023-09-12T09:54:10;13.50;;;9.20;;
76807;SDS011;65758;45.458;11.062;2023-09-12T09:56:49;12.50;;;9.20;;
76807;SDS011;65758;45.458;11.062;2023-09-12T09:59:18;12.50;;;9.00;;
76807;SDS011;65758;45.458;11.062;2023-09-12T10:01:48;14.80;;;9.80;;
76807;SDS011;65758;45.458;11.062;2023-09-12T10:04:17;12.50;;;9.20;;
76807;SDS011;65758;45.458;11.062;2023-09-12T10:06:45;12.00;;;9.30;;
76807;SDS011;65758;45.458;11.062;2023-09-12T10:09:13;9.50;;;7.80;;
76807;SDS011;65758;45.458;11.062;2023-09-12T10:11:42;10.20;;;8.30;;
76807;SDS011;65758;45.458;11.062;2023-09-12T10:14:10;11.70;;;8.70;;
76807;SDS011;65758;45.458;11.062;2023-09-12T10:16:44;10.50;;;8.90;;
76807;SDS011;65758;45.458;11.062;2023-09-12T10:19:15;11.90;;;8.40;;
76807;SDS011;65758;45.458;11.062;2023-09-12T10:21:59;14.80;;;9.80;;
76807;SDS011;65758;45.458;11.062;2023-09-12T10:24:54;12.90;;;8.20;;
76807;SDS011;65758;45.458;11.062;2023-09-12T10:27:24;9.70;;;8.40;;
76807;SDS011;65758;45.458;11.062;2023-09-12T10:29:52;12.90;;;7.80;;
76807;SDS011;65758;45.458;11.062;2023-09-12T10:32:20;9.90;;;8.10;;
76807;SDS011;65758;45.458;11.062;2023-09-12T10:34:48;10.30;;;8.20;;
76807;SDS011;65758;45.458;11.062;2023-09-12T10:37:16;11.70;;;7.80;;
76807;SDS011;65758;45.458;11.062;2023-09-12T10:39:43;10.40;;;8.20;;
76807;SDS011;65758;45.458;11.062;2023-09-12T10:42:12;10.10;;;9.00;;
76807;SDS011;65758;45.458;11.062;2023-09-12T10:44:39;12.70;;;9.50;;
76807;SDS011;65758;45.458;11.062;2023-09-12T10:47:06;12.00;;;9.40;;
76807;SDS011;65758;45.458;11.062;2023-09-12T10:49:35;10.40;;;8.50;;
76807;SDS011;65758;45.458;11.062;2023-09-12T10:52:03;11.60;;;9.10;;
76807;SDS011;65758;45.458;11.062;2023-09-12T10:54:39;11.80;;;9.70;;
76807;SDS011;65758;45.458;11.062;2023-09-12T10:57:08;11.70;;;10.60;;
76807;SDS011;65758;45.458;11.062;2023-09-12T11:02:26;10.50;;;9.20;;
76807;SDS011;65758;45.458;11.062;2023-09-12T11:04:56;18.10;;;10.40;;
76807;SDS011;65758;45.458;11.062;2023-09-12T11:10:15;14.00;;;10.30;;
76807;SDS011;65758;45.458;11.062;2023-09-12T11:12:43;13.60;;;10.10;;
76807;SDS011;65758;45.458;11.062;2023-09-12T11:15:10;13.80;;;11.70;;
76807;SDS011;65758;45.458;11.062;2023-09-12T11:17:37;17.70;;;11.80;;
76807;SDS011;65758;45.458;11.062;2023-09-12T11:20:05;10.80;;;9.70;;
76807;SDS011;65758;45.458;11.062;2023-09-12T11:22:47;12.50;;;9.40;;
76807;SDS011;65758;45.458;11.062;2023-09-12T11:25:20;15.80;;;11.20;;
76807;SDS011;65758;45.458;11.062;2023-09-12T11:30:20;18.20;;;11.80;;
76807;SDS011;65758;45.458;11.062;2023-09-12T11:32:51;11.10;;;10.10;;
76807;SDS011;65758;45.458;11.062;2023-09-12T11:35:25;16.90;;;11.30;;
76807;SDS011;65758;45.458;11.062;2023-09-12T11:37:57;15.60;;;11.20;;
76807;SDS011;65758;45.458;11.062;2023-09-12T11:40:32;13.80;;;11.20;;
76807;SDS011;65758;45.458;11.062;2023-09-12T11:43:17;14.40;;;11.30;;
76807;SDS011;65758;45.458;11.062;2023-09-12T11:45:49;14.70;;;10.30;;
76807;SDS011;65758;45.458;11.062;2023-09-12T11:48:17;13.30;;;9.80;;
76807;SDS011;65758;45.458;11.062;2023-09-12T11:50:52;15.40;;;10.60;;
76807;SDS011;65758;45.458;11.062;2023-09-12T11:53:21;14.70;;;12.10;;
76807;SDS011;65758;45.458;11.062;2023-09-12T11:58:20;14.40;;;12.00;;
76807;SDS011;65758;45.458;11.062;2023-09-12T12:00:52;12.70;;;11.30;;
76807;SDS011;65758;45.458;11.062;2023-09-12T12:03:22;13.10;;;10.40;;
76807;SDS011;65758;45.458;11.062;2023-09-12T12:05:51;15.50;;;11.90;;
76807;SDS011;65758;45.458;11.062;2023-09-12T12:08:20;12.40;;;10.50;;
76807;SDS011;65758;45.458;11.062;2023-09-12T12:13:25;14.70;;;12.90;;
76807;SDS011;65758;45.458;11.062;2023-09-12T12:16:17;14.50;;;11.90;;
76807;SDS011;65758;45.458;11.062;2023-09-12T12:18:44;12.40;;;10.70;;
76807;SDS011;65758;45.458;11.062;2023-09-12T12:21:11;14.80;;;11.00;;
76807;SDS011;65758;45.458;11.062;2023-09-12T12:23:38;14.70;;;12.30;;
76807;SDS011;65758;45.458;11.062;2023-09-12T12:26:08;13.30;;;11.50;;
76807;SDS011;65758;45.458;11.062;2023-09-12T12:28:36;16.00;;;11.90;;
76807;SDS011;65758;45.458;11.062;2023-09-12T12:31:03;17.60;;;13.50;;
76807;SDS011;65758;45.458;11.062;2023-09-12T12:33:31;18.60;;;13.80;;
76807;SDS011;65758;45.458;11.062;2023-09-12T12:36:18;16.20;;;11.80;;
76807;SDS011;65758;45.458;11.062;2023-09-12T12:38:47;15.10;;;12.40;;
76807;SDS011;65758;45.458;11.062;2023-09-12T12:41:22;15.70;;;12.40;;
76807;SDS011;65758;45.458;11.062;2023-09-12T12:43:52;15.10;;;11.60;;
76807;SDS011;65758;45.458;11.062;2023-09-12T12:46:21;13.60;;;11.10;;
76807;SDS011;65758;45.458;11.062;2023-09-12T12:48:50;11.90;;;10.70;;
76807;SDS011;65758;45.458;11.062;2023-09-12T12:51:19;11.90;;;10.00;;
76807;SDS011;65758;45.458;11.062;2023-09-12T12:53:50;12.10;;;10.90;;
76807;SDS011;65758;45.458;11.062;2023-09-12T12:56:26;12.60;;;10.20;;
76807;SDS011;65758;45.458;11.062;2023-09-12T12:58:58;11.50;;;10.40;;
76807;SDS011;65758;45.458;11.062;2023-09-12T13:01:30;16.80;;;10.80;;
76807;SDS011;65758;45.458;11.062;2023-09-12T13:03:57;14.60;;;11.50;;
76807;SDS011;65758;45.458;11.062;2023-09-12T13:06:24;12.40;;;10.50;;
76807;SDS011;65758;45.458;11.062;2023-09-12T13:08:52;11.40;;;10.30;;
76807;SDS011;65758;45.458;11.062;2023-09-12T13:11:20;15.60;;;11.40;;
76807;SDS011;65758;45.458;11.062;2023-09-12T13:13:47;15.10;;;10.10;;
76807;SDS011;65758;45.458;11.062;2023-09-12T13:16:18;13.50;;;9.60;;
76807;SDS011;65758;45.458;11.062;2023-09-12T13:18:45;10.00;;;9.00;;
76807;SDS011;65758;45.458;11.062;2023-09-12T13:21:13;12.00;;;9.40;;
76807;SDS011;65758;45.458;11.062;2023-09-12T13:23:39;10.70;;;9.60;;
76807;SDS011;65758;45.458;11.062;2023-09-12T13:26:07;10.70;;;9.30;;
76807;SDS011;65758;45.458;11.062;2023-09-12T13:28:36;14.20;;;10.50;;
76807;SDS011;65758;45.458;11.062;2023-09-12T13:31:03;10.60;;;9.00;;
76807;SDS011;65758;45.458;11.062;2023-09-12T13:33:30;12.60;;;11.30;;
76807;SDS011;65758;45.458;11.062;2023-09-12T13:35:58;13.00;;;11.10;;
76807;SDS011;65758;45.458;11.062;2023-09-12T13:38:25;13.30;;;11.50;;
76807;SDS011;65758;45.458;11.062;2023-09-12T13:40:52;10.90;;;9.80;;
76807;SDS011;65758;45.458;11.062;2023-09-12T13:43:19;11.90;;;10.50;;
76807;SDS011;65758;45.458;11.062;2023-09-12T13:45:46;12.30;;;10.50;;
76807;SDS011;65758;45.458;11.062;2023-09-12T13:48:13;12.30;;;11.00;;
76807;SDS011;65758;45.458;11.062;2023-09-12T13:50:41;11.50;;;10.40;;
76807;SDS011;65758;45.458;11.062;2023-09-12T13:53:11;14.70;;;11.10;;
76807;SDS011;65758;45.458;11.062;2023-09-12T13:55:38;12.50;;;11.30;;
76807;SDS011;65758;45.458;11.062;2023-09-12T13:58:05;12.60;;;10.50;;
76807;SDS011;65758;45.458;11.062;2023-09-12T14:00:35;12.50;;;10.20;;
76807;SDS011;65758;45.458;11.062;2023-09-12T14:03:03;12.10;;;10.20;;
76807;SDS011;65758;45.458;11.062;2023-09-12T14:05:31;12.70;;;11.40;;
76807;SDS011;65758;45.458;11.062;2023-09-12T14:07:59;13.80;;;11.30;;
76807;SDS011;65758;45.458;11.062;2023-09-12T14:10:26;14.10;;;12.10;;
76807;SDS011;65758;45.458;11.062;2023-09-12T14:13:03;12.70;;;11.00;;
76807;SDS011;65758;45.458;11.062;2023-09-12T14:15:47;13.60;;;11.00;;
76807;SDS011;65758;45.458;11.062;2023-09-12T14:18:17;13.20;;;11.70;;
76807;SDS011;65758;45.458;11.062;2023-09-12T14:20:45;12.20;;;10.90;;
76807;SDS011;65758;45.458;11.062;2023-09-12T14:23:14;11.80;;;10.60;;
76807;SDS011;65758;45.458;11.062;2023-09-12T14:25:43;12.60;;;11.30;;
76807;SDS011;65758;45.458;11.062;2023-09-12T14:28:12;14.30;;;11.30;;
76807;SDS011;65758;45.458;11.062;2023-09-12T14:30:41;17.10;;;11.60;;
76807;SDS011;65758;45.458;11.062;2023-09-12T14:33:11;13.90;;;12.40;;
76807;SDS011;65758;45.458;11.062;2023-09-12T14:35:43;15.40;;;11.30;;
76807;SDS011;65758;45.458;11.062;2023-09-12T14:38:10;11.60;;;10.30;;
76807;SDS011;65758;45.458;11.062;2023-09-12T14:40:37;14.60;;;12.60;;
76807;SDS011;65758;45.458;11.062;2023-09-12T14:43:10;13.30;;;11.60;;
76807;SDS011;65758;45.458;11.062;2023-09-12T14:45:38;16.60;;;12.00;;